Clifton, NJ (07015)

3:26 AM EDT on September 16, 2014 (GMT -0400)
Residential | Change Station
CLOSE
Current Station
Personal Weather Station
Location: Saddle Brook, NJ
Elevation: 59 ft
Nearby Weather Stations

Elev 59 ft 40.91 °N, 74.10 °W | Updated 3 seconds ago

Partly Cloudy
Partly Cloudy
56.7 °F
Feels Like 56.7 °F
N
0.0
Wind Variable Wind from North
Gusts 0.0 mph

Today
High -- | Low -- °F
--% Chance of Precip.
Yesterday
High -- | Low -- °F
Precip. -- in
6:38 AM 7:03 PM
Waning Gibbous, 48% visible
Pressure 30.04 in
Visibility 10.0 miles
Clouds Few 5500 ft
Dew Point 55 °F
Humidity 93%
Rainfall 0.00 in
Snow Depth Not available.
UV 0 out of 12
Pollen 3.30 out of 12
Air Quality Not available.
Flu Activity Not available.
METAR KTEB 160651Z 00000KT 10SM FEW055 16/11 A3004 RMK AO2 SLP172 T01560106

More Conditions Fewer Conditions

Pressure 30.04 in
Visibility 10.0 miles
Clouds Few 5500 ft
Dew Point 55 °F
Humidity 93%
Rainfall 0.00 in
Snow Depth Not available.
UV 0 out of 12
Pollen 3.30 out of 12
Air Quality Not available.
Flu Activity Not available.
METAR KTEB 160651Z 00000KT 10SM FEW055 16/11 A3004 RMK AO2 SLP172 T01560106

More Conditions Fewer Conditions

10-Day Weather Forecast

Almanac

Astronomy

Sep. 16, 2014 Rise Set
Actual Time 6:38 AM EDT 7:03 PM EDT
Civil Twilight 6:10 AM EDT 7:31 PM EDT
Nautical Twilight 5:38 AM EDT 8:03 PM EDT
Astronomical Twilight 5:04 AM EDT 8:36 PM EDT
Moon No Moon Rise 2:27 PM EDT
Length of Visible Light 13h 20m
Length of Day
12h 25m
Tomorrow will be 2m 41s shorter.
Waning Gibbous, 48% of the Moon is Illuminated
Today
Waning Gibbous
Sep 24
New
Oct 1
First Quarter
Oct 8
Full
Oct 15
Last Quarter

Today's Extremes

State Highs State Lows

Community

WunderPhotos

Upload Photos

1,753,699 photos uploaded!

Nearby

Snow Depth

Station Depth Elevation
No new snow has been reported.

Earthquake Activity

City Distance Mag. Time & Date
No recent earthquake activity has been reported nearby.
Minimum magnitude displayed is 2.5.

Coastal Water Temperatures

Place Temperature
Sandy Hook, NJ 70.0 °F
The Battery, NY 72.0 °F
Bergen Point West Reach, NJ 71.1 °F
Kings Point, NY 69.1 °F

Nearby Weather Stations